createdAt,value
2022-08-25T00:01:39.292Z,100.00
2022-08-25T00:04:11.151Z,100.00
2022-08-25T00:06:40.765Z,100.00
2022-08-25T00:09:08.981Z,100.00
2022-08-25T00:11:37.846Z,100.00
2022-08-25T00:14:10.588Z,100.00
2022-08-25T00:16:38.007Z,100.00
2022-08-25T00:19:09.060Z,100.00
2022-08-25T00:21:36.372Z,100.00
2022-08-25T00:24:04.395Z,100.00
2022-08-25T00:26:31.549Z,100.00
2022-08-25T00:29:01.754Z,100.00
2022-08-25T00:31:38.185Z,100.00
2022-08-25T00:34:09.895Z,100.00
2022-08-25T00:36:37.796Z,100.00
2022-08-25T00:39:07.616Z,100.00
2022-08-25T00:41:35.506Z,100.00
2022-08-25T00:44:06.414Z,100.00
2022-08-25T00:46:43.620Z,100.00
2022-08-25T00:49:25.455Z,100.00
2022-08-25T00:51:55.516Z,100.00
2022-08-25T00:54:27.410Z,100.00
2022-08-25T00:56:55.211Z,100.00
2022-08-25T00:59:24.579Z,100.00
2022-08-25T01:01:52.372Z,100.00
2022-08-25T01:04:19.632Z,100.00
2022-08-25T01:06:48.863Z,100.00
2022-08-25T01:09:17.302Z,100.00
2022-08-25T01:11:45.246Z,100.00
2022-08-25T01:14:16.413Z,100.00
2022-08-25T01:16:43.974Z,100.00
2022-08-25T01:19:15.182Z,100.00
2022-08-25T01:21:51.100Z,100.00
2022-08-25T01:24:37.601Z,100.00
2022-08-25T01:27:05.848Z,100.00
2022-08-25T01:29:33.351Z,100.00
2022-08-25T01:32:04.677Z,100.00
2022-08-25T01:34:35.434Z,100.00
2022-08-25T01:37:02.754Z,100.00
2022-08-25T01:39:34.100Z,100.00
2022-08-25T01:42:06.737Z,100.00
2022-08-25T01:44:36.118Z,100.00
2022-08-25T01:47:04.256Z,100.00
2022-08-25T01:49:31.271Z,100.00
2022-08-25T01:52:25.927Z,100.00
2022-08-25T01:54:52.920Z,100.00
2022-08-25T01:57:20.007Z,100.00
2022-08-25T01:59:47.649Z,100.00
2022-08-25T02:02:15.088Z,100.00
2022-08-25T02:04:45.512Z,100.00
2022-08-25T02:07:12.633Z,100.00
2022-08-25T02:09:39.714Z,100.00
2022-08-25T02:12:09.275Z,100.00
2022-08-25T02:14:37.387Z,100.00
2022-08-25T02:17:05.589Z,100.00
2022-08-25T02:19:32.721Z,100.00
2022-08-25T02:22:00.439Z,100.00
2022-08-25T02:24:27.839Z,100.00
2022-08-25T02:26:55.509Z,100.00
2022-08-25T02:29:22.919Z,100.00
2022-08-25T02:31:49.988Z,100.00
2022-08-25T02:34:17.109Z,100.00
2022-08-25T02:36:44.416Z,100.00
2022-08-25T02:39:12.688Z,100.00
2022-08-25T02:41:40.447Z,100.00
2022-08-25T02:44:08.744Z,100.00
2022-08-25T02:46:37.498Z,100.00
2022-08-25T02:49:05.969Z,100.00
2022-08-25T02:51:34.780Z,100.00
2022-08-25T02:54:04.902Z,100.00
2022-08-25T02:56:33.286Z,100.00
2022-08-25T02:59:02.033Z,100.00
2022-08-25T03:01:30.506Z,100.00
2022-08-25T03:03:57.933Z,100.00
2022-08-25T03:06:25.059Z,100.00
2022-08-25T03:08:52.763Z,100.00
2022-08-25T03:11:20.836Z,100.00
2022-08-25T03:13:51.211Z,100.00
2022-08-25T03:16:19.153Z,100.00
2022-08-25T03:18:46.906Z,100.00
2022-08-25T03:21:15.909Z,100.00
2022-08-25T03:23:43.695Z,100.00
2022-08-25T03:26:29.189Z,100.00
2022-08-25T03:28:56.140Z,100.00
2022-08-25T03:31:26.226Z,100.00
2022-08-25T03:33:54.543Z,100.00
2022-08-25T03:36:21.490Z,100.00
2022-08-25T03:38:48.458Z,100.00
2022-08-25T03:41:22.043Z,100.00
2022-08-25T03:43:49.652Z,100.00
2022-08-25T03:46:23.489Z,100.00
2022-08-25T03:48:51.459Z,100.00
2022-08-25T03:51:34.177Z,100.00
2022-08-25T03:54:03.054Z,100.00
2022-08-25T03:56:30.902Z,100.00
2022-08-25T03:58:57.913Z,100.00
2022-08-25T04:01:25.743Z,100.00
2022-08-25T04:03:52.922Z,100.00
2022-08-25T04:06:21.837Z,100.00
2022-08-25T04:08:48.966Z,100.00
2022-08-25T04:11:19.279Z,100.00
2022-08-25T04:13:47.583Z,100.00
2022-08-25T04:16:26.755Z,100.00
2022-08-25T04:18:55.532Z,100.00
2022-08-25T04:21:23.624Z,100.00
2022-08-25T04:23:52.236Z,100.00
2022-08-25T04:26:21.157Z,100.00
2022-08-25T04:28:48.090Z,100.00
2022-08-25T04:31:19.836Z,100.00
2022-08-25T04:33:48.224Z,100.00
2022-08-25T04:36:17.090Z,100.00
2022-08-25T04:38:45.858Z,100.00
2022-08-25T04:41:15.172Z,100.00
2022-08-25T04:43:44.530Z,100.00
2022-08-25T04:46:20.251Z,100.00
2022-08-25T04:48:49.068Z,100.00
2022-08-25T04:51:19.296Z,100.00
2022-08-25T04:53:46.800Z,100.00
2022-08-25T04:56:16.283Z,100.00
2022-08-25T04:58:43.441Z,100.00
2022-08-25T05:01:15.688Z,100.00
2022-08-25T05:03:43.529Z,100.00
2022-08-25T05:06:15.283Z,100.00
2022-08-25T05:08:45.961Z,100.00
2022-08-25T05:11:16.731Z,100.00
2022-08-25T05:13:51.624Z,100.00
2022-08-25T05:16:20.271Z,100.00
2022-08-25T05:18:47.661Z,100.00
2022-08-25T05:21:21.731Z,100.00
2022-08-25T05:23:48.953Z,100.00
2022-08-25T05:26:20.574Z,100.00
2022-08-25T05:28:50.943Z,100.00
2022-08-25T05:31:19.232Z,100.00
2022-08-25T05:33:46.243Z,100.00
2022-08-25T05:36:14.463Z,100.00
2022-08-25T05:38:41.981Z,100.00
2022-08-25T05:41:11.824Z,100.00
2022-08-25T05:43:40.376Z,100.00
2022-08-25T05:46:08.429Z,100.00
2022-08-25T05:48:36.614Z,100.00
2022-08-25T05:51:06.219Z,100.00
2022-08-25T05:53:34.592Z,100.00
2022-08-25T05:56:02.335Z,100.00
2022-08-25T05:58:31.639Z,100.00
2022-08-25T06:01:20.398Z,100.00
2022-08-25T06:03:47.916Z,100.00
2022-08-25T06:06:16.188Z,100.00
2022-08-25T06:08:44.607Z,100.00
2022-08-25T06:11:13.135Z,100.00
2022-08-25T06:13:40.886Z,100.00
2022-08-25T06:16:08.045Z,100.00
2022-08-25T06:18:35.006Z,100.00
2022-08-25T06:21:13.130Z,100.00
2022-08-25T06:23:40.797Z,100.00
2022-08-25T06:26:13.175Z,100.00
2022-08-25T06:28:52.674Z,100.00
2022-08-25T06:31:22.491Z,100.00
2022-08-25T06:33:51.082Z,100.00
2022-08-25T06:36:19.374Z,100.00
2022-08-25T06:38:47.236Z,100.00
2022-08-25T06:41:14.750Z,100.00
2022-08-25T06:43:48.008Z,100.00
2022-08-25T06:46:35.598Z,100.00
2022-08-25T06:49:03.158Z,100.00
2022-08-25T06:51:30.085Z,100.00
2022-08-25T06:53:57.059Z,100.00
2022-08-25T06:56:24.112Z,100.00
2022-08-25T06:58:51.022Z,100.00
2022-08-25T07:01:26.305Z,100.00
2022-08-25T07:03:59.920Z,100.00
2022-08-25T07:06:29.610Z,99.81
2022-08-25T07:08:56.600Z,97.14
2022-08-25T07:11:23.823Z,94.26
2022-08-25T07:13:51.519Z,93.08
2022-08-25T07:16:21.014Z,93.43
2022-08-25T07:18:49.011Z,91.24
2022-08-25T07:21:16.017Z,90.47
2022-08-25T07:23:43.428Z,89.35
2022-08-25T07:26:39.325Z,87.33
2022-08-25T07:29:32.864Z,85.26
2022-08-25T07:32:04.076Z,86.56
2022-08-25T07:34:52.014Z,84.25
2022-08-25T07:37:38.439Z,82.85
2022-08-25T07:40:10.569Z,81.51
2022-08-25T07:42:38.002Z,81.34
2022-08-25T07:45:07.353Z,81.41
2022-08-25T07:47:34.946Z,82.26
2022-08-25T07:50:02.279Z,82.91
2022-08-25T07:52:32.717Z,81.56
2022-08-25T07:55:00.879Z,80.44
2022-08-25T07:57:29.681Z,81.97
2022-08-25T07:59:58.841Z,80.87
2022-08-25T08:02:26.127Z,82.09
2022-08-25T08:04:53.912Z,81.41
2022-08-25T08:07:36.956Z,80.76
2022-08-25T08:10:42.395Z,80.66
2022-08-25T08:13:00.535Z,81.76
2022-08-25T08:15:29.932Z,81.59
2022-08-25T08:17:58.545Z,81.50
2022-08-25T08:20:28.968Z,77.75
2022-08-25T08:22:56.071Z,77.38
2022-08-25T08:25:27.220Z,76.73
2022-08-25T08:27:56.323Z,76.07
2022-08-25T08:30:26.311Z,70.77
2022-08-25T08:33:11.259Z,70.74
2022-08-25T08:35:40.500Z,68.33
2022-08-25T08:38:14.925Z,67.76
2022-08-25T08:41:23.070Z,62.05
2022-08-25T08:43:56.567Z,62.84
2022-08-25T08:46:25.926Z,61.05
2022-08-25T08:49:29.031Z,60.81
2022-08-25T08:52:01.144Z,62.41
2022-08-25T08:54:37.465Z,62.38
2022-08-25T08:57:18.994Z,59.80
2022-08-25T08:59:52.102Z,56.66
2022-08-25T09:02:51.685Z,59.94
2022-08-25T09:05:21.099Z,55.63
2022-08-25T09:07:56.148Z,58.23
2022-08-25T09:10:26.362Z,58.46
2022-08-25T09:13:16.805Z,59.06
2022-08-25T09:16:34.101Z,57.75
2022-08-25T09:19:21.276Z,57.99
2022-08-25T09:22:02.511Z,56.49
2022-08-25T09:24:54.794Z,56.48
2022-08-25T09:27:24.653Z,56.14
2022-08-25T09:30:17.968Z,50.59
2022-08-25T09:32:52.345Z,49.33
2022-08-25T09:35:23.798Z,51.94
2022-08-25T09:38:03.824Z,51.60
2022-08-25T09:40:34.351Z,49.87
2022-08-25T09:43:05.797Z,49.25
2022-08-25T10:17:27.580Z,42.98
2022-08-25T10:20:17.213Z,42.48
2022-08-25T10:22:45.712Z,42.21
2022-08-25T10:25:21.092Z,43.41
2022-08-25T10:28:11.036Z,43.94
2022-08-25T10:30:51.681Z,45.12
2022-08-25T10:33:27.754Z,45.06
2022-08-25T10:36:20.319Z,45.59
2022-08-25T10:38:56.159Z,45.72
2022-08-25T10:41:32.033Z,45.36
2022-08-25T10:44:43.022Z,41.97
2022-08-25T10:47:53.166Z,43.29
2022-08-25T10:50:45.433Z,43.70
2022-08-25T10:53:13.404Z,43.27
2022-08-25T10:55:45.940Z,42.61
2022-08-25T10:58:45.192Z,41.58
2022-08-25T11:01:29.655Z,41.06
2022-08-25T11:04:10.413Z,40.74
2022-08-25T11:06:55.254Z,42.34
2022-08-25T11:09:29.302Z,38.82
2022-08-25T11:12:00.970Z,39.38
2022-08-25T11:14:56.908Z,38.30
2022-08-25T11:17:51.801Z,41.56
2022-08-25T11:20:26.826Z,41.33
2022-08-25T11:23:24.577Z,40.61
2022-08-25T11:25:54.143Z,39.63
2022-08-25T11:28:26.940Z,41.26
2022-08-25T11:30:57.825Z,41.22
2022-08-25T11:33:27.854Z,43.04
2022-08-25T11:36:00.021Z,42.23
2022-08-25T11:39:01.484Z,41.32
2022-08-25T11:41:49.582Z,42.10
2022-08-25T11:44:58.519Z,43.63
2022-08-25T11:47:51.372Z,43.76
2022-08-25T11:50:36.634Z,44.20
2022-08-25T11:53:12.307Z,45.70
2022-08-25T11:55:52.346Z,45.29
2022-08-25T11:58:28.143Z,44.44
2022-08-25T12:01:00.374Z,44.07
2022-08-25T12:03:36.353Z,43.69
2022-08-25T12:06:26.397Z,43.55
2022-08-25T12:08:57.676Z,43.75
2022-08-25T12:12:06.092Z,43.95
2022-08-25T12:14:42.171Z,45.58
2022-08-25T12:17:24.476Z,46.35
2022-08-25T12:19:54.902Z,46.73
2022-08-25T12:22:24.575Z,44.37
2022-08-25T12:25:03.592Z,46.61
2022-08-25T12:28:09.016Z,48.42
2022-08-25T12:30:50.544Z,50.47
2022-08-25T12:33:32.926Z,49.92
2022-08-25T12:36:03.698Z,50.04
2022-08-25T12:38:44.075Z,51.24
2022-08-25T12:41:13.232Z,53.58
2022-08-25T12:43:46.196Z,52.83
2022-08-25T12:46:37.674Z,52.68
2022-08-25T12:49:32.393Z,52.51
2022-08-25T12:52:12.826Z,51.41
2022-08-25T12:54:51.462Z,51.49
2022-08-25T12:57:31.687Z,51.32
2022-08-25T13:00:06.965Z,51.97
2022-08-25T13:03:04.981Z,51.79
2022-08-25T13:05:42.797Z,51.08
2022-08-25T13:08:34.155Z,49.13
2022-08-25T13:11:18.030Z,47.59
2022-08-25T13:14:08.481Z,46.49
2022-08-25T13:16:37.531Z,46.67
2022-08-25T13:19:06.881Z,47.88
2022-08-25T13:21:42.259Z,48.21
2022-08-25T13:24:22.695Z,48.85
2022-08-25T13:26:55.717Z,49.32
2022-08-25T13:29:30.106Z,49.71
2022-08-25T13:32:09.678Z,51.14
2022-08-25T13:34:38.845Z,52.77
2022-08-25T13:37:30.318Z,53.95
2022-08-25T13:40:25.925Z,52.51
2022-08-25T13:43:14.053Z,51.87
2022-08-25T13:45:47.535Z,49.98
2022-08-25T13:48:31.760Z,45.52
2022-08-25T13:51:09.976Z,45.92
2022-08-25T13:53:38.874Z,46.50
2022-08-25T13:56:07.462Z,46.14
2022-08-25T13:58:44.599Z,47.04
2022-08-25T14:01:19.911Z,48.39
2022-08-25T14:04:33.779Z,48.87
2022-08-25T14:07:19.435Z,51.67
2022-08-25T14:09:55.511Z,51.71
2022-08-25T14:12:40.066Z,51.83
2022-08-25T14:15:18.396Z,52.65
2022-08-25T14:17:59.796Z,52.79
2022-08-25T14:20:31.187Z,52.73
2022-08-25T14:23:09.879Z,53.62
2022-08-25T14:25:40.436Z,54.53
2022-08-25T14:28:21.985Z,53.75
2022-08-25T14:30:56.133Z,53.72
2022-08-25T14:33:30.109Z,54.00
2022-08-25T14:35:59.188Z,54.25
2022-08-25T14:38:26.595Z,55.09
2022-08-25T14:40:54.009Z,53.75
2022-08-25T14:43:23.783Z,53.84
2022-08-25T14:45:51.961Z,54.29
2022-08-25T14:48:39.186Z,54.60
2022-08-25T14:51:06.513Z,54.52
2022-08-25T14:53:33.990Z,55.30
2022-08-25T14:56:01.045Z,54.80
2022-08-25T14:58:35.768Z,53.23
2022-08-25T15:01:18.292Z,53.55
2022-08-25T15:04:02.411Z,53.66
2022-08-25T15:06:29.969Z,54.14
2022-08-25T15:09:11.197Z,53.92
2022-08-25T15:11:44.586Z,53.86
2022-08-25T15:14:15.851Z,53.89
2022-08-25T15:16:49.351Z,53.53
2022-08-25T15:19:18.563Z,53.45
2022-08-25T15:21:47.492Z,53.53
2022-08-25T15:24:17.406Z,53.55
2022-08-25T15:29:26.375Z,52.04
2022-08-25T15:31:53.634Z,51.93
2022-08-25T15:34:20.760Z,50.99
2022-08-25T15:36:48.317Z,50.87
2022-08-25T15:39:18.889Z,51.42
2022-08-25T15:41:49.293Z,52.13
2022-08-25T15:44:16.680Z,53.15
2022-08-25T15:46:47.013Z,53.60
2022-08-25T15:49:20.718Z,53.63
2022-08-25T15:51:52.625Z,54.14
2022-08-25T15:54:20.860Z,54.49
2022-08-25T15:56:47.807Z,54.96
2022-08-25T15:59:15.556Z,55.94
2022-08-25T16:01:46.462Z,56.68
2022-08-25T16:04:14.544Z,57.01
2022-08-25T16:06:41.527Z,57.62
2022-08-25T16:09:08.480Z,58.03
2022-08-25T16:11:38.521Z,58.04
2022-08-25T16:14:06.559Z,58.00
2022-08-25T16:16:33.970Z,57.93
2022-08-25T16:19:02.493Z,58.03
2022-08-25T16:21:33.146Z,58.15
2022-08-25T16:24:05.510Z,58.63
2022-08-25T16:26:46.298Z,58.81
2022-08-25T16:29:15.745Z,59.75
2022-08-25T16:31:44.492Z,60.57
2022-08-25T16:34:12.239Z,61.67
2022-08-25T16:36:40.163Z,62.29
2022-08-25T16:39:09.950Z,62.83
2022-08-25T16:41:37.465Z,63.21
2022-08-25T16:44:11.212Z,63.09
2022-08-25T16:46:40.662Z,62.85
2022-08-25T16:49:08.993Z,63.11
2022-08-25T16:51:38.246Z,63.54
2022-08-25T16:54:24.489Z,63.08
2022-08-25T16:56:55.169Z,63.56
2022-08-25T16:59:23.370Z,63.51
2022-08-25T17:01:52.515Z,63.30
2022-08-25T17:04:20.329Z,62.20
2022-08-25T17:06:51.689Z,61.34
2022-08-25T17:09:22.878Z,61.25
2022-08-25T17:11:54.160Z,60.33
2022-08-25T17:14:22.041Z,60.34
2022-08-25T17:16:51.357Z,60.25
2022-08-25T17:19:19.034Z,59.99
2022-08-25T17:21:47.298Z,60.12
2022-08-25T17:24:17.321Z,60.43
2022-08-25T17:26:55.310Z,61.01
2022-08-25T17:29:22.192Z,61.02
2022-08-25T17:31:49.362Z,60.79
2022-08-25T17:34:23.311Z,60.59
2022-08-25T17:36:51.467Z,60.49
2022-08-25T17:39:22.119Z,60.15
2022-08-25T17:41:49.934Z,59.16
2022-08-25T17:44:17.481Z,58.92
2022-08-25T17:46:47.132Z,59.36
2022-08-25T17:49:15.724Z,59.42
2022-08-25T17:51:42.879Z,58.91
2022-08-25T17:54:10.902Z,58.89
2022-08-25T17:56:38.204Z,59.24
2022-08-25T17:59:06.013Z,58.72
2022-08-25T18:01:40.245Z,59.14
2022-08-25T18:04:16.951Z,59.91
2022-08-25T18:06:45.563Z,59.75
2022-08-25T18:09:12.845Z,61.61
2022-08-25T18:11:39.779Z,61.53
2022-08-25T18:14:06.757Z,61.97
2022-08-25T18:16:38.499Z,61.85
2022-08-25T18:19:06.629Z,63.07
2022-08-25T18:21:37.209Z,64.57
2022-08-25T18:24:05.238Z,65.16
2022-08-25T18:26:32.961Z,65.33
2022-08-25T18:29:00.202Z,65.53
2022-08-25T18:31:27.256Z,66.67
2022-08-25T18:33:54.353Z,67.89
2022-08-25T18:36:21.376Z,68.85
2022-08-25T18:39:07.422Z,69.75
2022-08-25T18:41:42.540Z,69.50
2022-08-25T18:44:11.030Z,70.60
2022-08-25T18:46:39.995Z,71.68
2022-08-25T18:49:07.195Z,72.47
2022-08-25T18:51:35.830Z,72.57
2022-08-25T18:54:03.819Z,73.33
2022-08-25T18:56:31.020Z,74.02
2022-08-25T18:58:58.556Z,75.32
2022-08-25T19:01:25.632Z,75.75
2022-08-25T19:03:52.775Z,76.08
2022-08-25T19:06:20.719Z,76.81
2022-08-25T19:08:48.609Z,76.78
2022-08-25T19:11:16.794Z,78.96
2022-08-25T19:13:44.888Z,80.85
2022-08-25T19:16:20.522Z,81.90
2022-08-25T19:18:49.076Z,83.19
2022-08-25T19:21:22.671Z,83.83
2022-08-25T19:23:51.331Z,84.36
2022-08-25T19:26:19.390Z,84.97
2022-08-25T19:28:48.923Z,85.83
2022-08-25T19:31:21.952Z,86.45
2022-08-25T19:33:51.546Z,87.36
2022-08-25T19:36:22.959Z,87.73
2022-08-25T19:38:51.706Z,88.88
2022-08-25T19:41:20.189Z,88.71
2022-08-25T19:43:50.535Z,89.05
2022-08-25T19:46:26.288Z,90.13
2022-08-25T19:49:07.157Z,90.06
2022-08-25T19:51:46.449Z,90.49
2022-08-25T19:54:16.513Z,91.09
2022-08-25T19:56:54.009Z,91.65
2022-08-25T19:59:34.337Z,92.69
2022-08-25T20:02:15.069Z,93.85
2022-08-25T20:04:49.614Z,94.15
2022-08-25T20:07:19.109Z,94.22
2022-08-25T20:09:46.077Z,94.83
2022-08-25T20:14:47.229Z,94.88
2022-08-25T20:17:24.551Z,95.49
2022-08-25T20:19:58.859Z,95.51
2022-08-25T20:22:27.857Z,96.28
2022-08-25T20:25:01.291Z,96.32
2022-08-25T20:27:33.529Z,96.36
2022-08-25T20:30:02.856Z,96.73
2022-08-25T20:32:31.682Z,96.85
2022-08-25T20:34:58.639Z,97.15
2022-08-25T20:37:26.009Z,97.35
2022-08-25T20:39:53.275Z,97.20
2022-08-25T20:42:20.623Z,96.62
2022-08-25T20:44:47.801Z,96.56
2022-08-25T20:47:15.465Z,96.07
2022-08-25T20:49:45.220Z,96.56
2022-08-25T20:52:14.234Z,96.79
2022-08-25T20:54:47.068Z,96.74
2022-08-25T20:57:25.461Z,97.39
2022-08-25T20:59:54.483Z,97.69
2022-08-25T21:02:22.529Z,97.56
2022-08-25T21:04:50.449Z,98.72
2022-08-25T21:07:18.669Z,98.58
2022-08-25T21:09:46.205Z,99.10
2022-08-25T21:12:13.384Z,99.23
2022-08-25T21:14:41.792Z,99.69
2022-08-25T21:17:12.820Z,99.63
2022-08-25T21:19:41.856Z,99.92
2022-08-25T21:22:10.847Z,100.00
2022-08-25T21:24:38.693Z,100.00
2022-08-25T21:27:06.487Z,100.00
2022-08-25T21:29:33.546Z,100.00
2022-08-25T21:32:01.121Z,100.00
2022-08-25T21:34:29.401Z,100.00
2022-08-25T21:37:00.213Z,100.00
2022-08-25T21:39:29.689Z,100.00
2022-08-25T21:42:00.278Z,100.00
2022-08-25T21:44:28.903Z,100.00
2022-08-25T21:46:56.356Z,100.00
2022-08-25T21:49:23.827Z,100.00
2022-08-25T21:52:00.107Z,100.00
2022-08-25T21:54:29.056Z,100.00
2022-08-25T21:56:59.940Z,100.00
2022-08-25T21:59:33.602Z,100.00
2022-08-25T22:02:04.381Z,100.00
2022-08-25T22:04:32.156Z,99.96
2022-08-25T22:06:59.429Z,99.35
2022-08-25T22:09:28.388Z,98.20
2022-08-25T22:11:56.693Z,97.22
2022-08-25T22:14:26.062Z,96.60
2022-08-25T22:16:54.668Z,96.44
2022-08-25T22:19:22.927Z,96.09
2022-08-25T22:21:51.422Z,95.75
2022-08-25T22:24:19.111Z,95.67
2022-08-25T22:26:47.742Z,95.91
2022-08-25T22:29:24.936Z,96.32
2022-08-25T22:31:59.881Z,96.38
2022-08-25T22:34:32.755Z,96.00
2022-08-25T22:37:03.540Z,95.07
2022-08-25T22:39:32.233Z,95.17
2022-08-25T22:42:01.958Z,95.87
2022-08-25T22:44:29.131Z,95.78
2022-08-25T22:46:56.192Z,95.88
2022-08-25T22:49:23.846Z,95.47
2022-08-25T22:51:51.124Z,95.48
2022-08-25T22:54:22.117Z,94.79
2022-08-25T22:56:49.140Z,94.39
2022-08-25T22:59:16.338Z,93.62
2022-08-25T23:01:44.528Z,94.15
2022-08-25T23:04:12.294Z,93.98
2022-08-25T23:06:39.981Z,93.76
2022-08-25T23:09:08.651Z,93.60
2022-08-25T23:11:38.503Z,93.48
2022-08-25T23:14:09.653Z,93.75
2022-08-25T23:16:41.948Z,93.83
2022-08-25T23:19:11.020Z,93.82
2022-08-25T23:22:01.178Z,93.49
2022-08-25T23:24:29.813Z,92.23
2022-08-25T23:26:59.182Z,92.50
2022-08-25T23:29:27.935Z,92.22
2022-08-25T23:31:55.186Z,91.78
2022-08-25T23:34:23.872Z,92.17
2022-08-25T23:36:51.581Z,92.77
2022-08-25T23:39:18.850Z,93.23
2022-08-25T23:41:49.466Z,93.69
2022-08-25T23:44:17.346Z,94.02
2022-08-25T23:46:47.063Z,93.58
2022-08-25T23:49:18.348Z,93.56
2022-08-25T23:51:47.426Z,93.79
2022-08-25T23:54:16.239Z,92.89
2022-08-25T23:56:51.686Z,92.49
2022-08-25T23:59:24.466Z,92.42
